HEAR

El Arish International Airport

El Arish, Egypt
METAR HEAR 201000Z 12002KT CAVOK 18/09 Q1019 NOSIG
Observed Flight Rules
Jan-20 @ 10:00 UTC (an hour ago) Visual Flight Rules
Wind Visibility Clouds
120° at 2 knots 10,000+ meters
  • Clear skies
Temperatures Readings
Current 18°C / 64°F
Dewpoint 9°C / 48°F
Humidity 56%
Altimeter 30.09" Hg
Pressure 1018.92 hPa
Elevation 32
METAR HEAR 201000Z 12002KT CAVOK 18/09 Q1019 NOSIG
Observed Flight Rules
Jan-20 @ 10:00 UTC
(an hour ago)
VFR
Wind Visibility
120° at 2 knots 10,000+ meters
Clouds
  • Clear skies
Temperature Dewpoint
18°C / 64°F 9°C / 48°F
Humidity Altimeter Pressure
56% 30.09" Hg 1018.92 hPa